createdAt,value
2023-01-03T00:00:51.284Z,79.50
2023-01-03T00:03:19.177Z,80.59
2023-01-03T00:05:49.659Z,80.36
2023-01-03T00:08:17.549Z,80.15
2023-01-03T00:10:45.421Z,79.58
2023-01-03T00:13:12.371Z,79.98
2023-01-03T00:15:41.413Z,78.94
2023-01-03T00:18:09.282Z,78.83
2023-01-03T00:20:37.138Z,79.09
2023-01-03T00:23:06.568Z,79.41
2023-01-03T00:25:34.627Z,79.39
2023-01-03T00:28:02.525Z,80.24
2023-01-03T00:30:30.427Z,80.53
2023-01-03T00:32:58.468Z,81.38
2023-01-03T00:35:26.532Z,80.34
2023-01-03T00:37:54.742Z,80.35
2023-01-03T00:40:24.191Z,81.33
2023-01-03T00:43:09.798Z,80.66
2023-01-03T00:45:37.685Z,80.80
2023-01-03T00:48:06.171Z,80.33
2023-01-03T00:50:34.172Z,79.99
2023-01-03T00:53:02.125Z,79.79
2023-01-03T00:55:31.323Z,79.08
2023-01-03T00:57:59.187Z,78.43
2023-01-03T01:00:27.453Z,78.82
2023-01-03T01:02:55.683Z,78.57
2023-01-03T01:05:25.944Z,78.57
2023-01-03T01:07:53.862Z,78.60
2023-01-03T01:10:22.073Z,77.67
2023-01-03T01:12:55.568Z,77.85
2023-01-03T01:15:23.986Z,78.27
2023-01-03T01:17:51.836Z,78.00
2023-01-03T01:20:19.892Z,78.74
2023-01-03T01:22:47.671Z,78.40
2023-01-03T01:25:17.195Z,78.41
2023-01-03T01:27:45.273Z,78.23
2023-01-03T01:30:14.459Z,79.38
2023-01-03T01:32:42.234Z,78.83
2023-01-03T01:35:10.826Z,79.73
2023-01-03T01:37:38.651Z,80.02
2023-01-03T01:40:08.835Z,79.52
2023-01-03T01:42:54.363Z,80.38
2023-01-03T01:45:23.911Z,81.09
2023-01-03T01:47:55.422Z,80.78
2023-01-03T01:50:27.356Z,81.22
2023-01-03T01:52:59.443Z,81.19
2023-01-03T01:55:40.181Z,80.97
2023-01-03T01:58:10.004Z,80.71
2023-01-03T02:00:40.375Z,81.10
2023-01-03T02:03:08.946Z,81.37
2023-01-03T02:05:40.683Z,81.08
2023-01-03T02:08:08.517Z,81.53
2023-01-03T02:10:56.129Z,81.70
2023-01-03T02:13:29.706Z,81.83
2023-01-03T02:16:12.121Z,82.94
2023-01-03T02:18:49.253Z,82.34
2023-01-03T02:21:44.153Z,82.08
2023-01-03T02:24:41.437Z,82.57
2023-01-03T02:27:29.358Z,82.40
2023-01-03T02:30:23.876Z,83.38
2023-01-03T02:32:56.164Z,83.80
2023-01-03T02:35:31.787Z,83.31
2023-01-03T02:38:06.850Z,82.84
2023-01-03T02:40:40.587Z,82.57
2023-01-03T02:43:15.576Z,82.94
2023-01-03T02:45:57.925Z,82.75
2023-01-03T02:48:37.969Z,82.27
2023-01-03T02:51:14.141Z,81.84
2023-01-03T02:53:45.459Z,81.77
2023-01-03T02:56:18.846Z,82.22
2023-01-03T02:58:50.649Z,82.82
2023-01-03T03:01:21.102Z,83.23
2023-01-03T03:03:50.011Z,82.85
2023-01-03T03:06:26.483Z,82.58
2023-01-03T03:08:54.363Z,82.20
2023-01-03T03:11:41.175Z,83.24
2023-01-03T03:14:17.748Z,81.83
2023-01-03T03:16:51.235Z,82.43
2023-01-03T03:19:45.270Z,83.21
2023-01-03T03:22:41.547Z,82.69
2023-01-03T03:25:14.102Z,82.95
2023-01-03T03:28:03.865Z,83.37
2023-01-03T03:30:34.920Z,83.15
2023-01-03T03:33:06.641Z,83.09
2023-01-03T03:35:40.670Z,83.46
2023-01-03T03:38:11.929Z,82.74
2023-01-03T03:41:05.817Z,82.65
2023-01-03T03:43:55.818Z,83.33
2023-01-03T03:46:30.978Z,82.73
2023-01-03T03:49:23.316Z,83.10
2023-01-03T03:51:52.003Z,82.33
2023-01-03T03:54:23.795Z,82.91
2023-01-03T03:57:02.957Z,82.74
2023-01-03T03:59:32.686Z,83.46
2023-01-03T04:02:04.506Z,82.54
2023-01-03T04:04:39.108Z,81.87
2023-01-03T04:07:07.134Z,83.06
2023-01-03T04:09:35.144Z,83.01
2023-01-03T04:12:03.105Z,83.50
2023-01-03T04:14:31.199Z,83.59
2023-01-03T04:16:59.098Z,83.20
2023-01-03T04:19:27.098Z,83.25
2023-01-03T04:21:56.379Z,83.55
2023-01-03T04:24:24.938Z,82.82
2023-01-03T04:26:52.964Z,82.91
2023-01-03T04:29:20.828Z,84.08
2023-01-03T04:31:48.810Z,84.46
2023-01-03T04:34:16.713Z,84.58
2023-01-03T04:36:44.521Z,83.86
2023-01-03T04:39:13.877Z,85.55
2023-01-03T04:41:41.866Z,85.23
2023-01-03T04:44:09.399Z,85.42
2023-01-03T04:46:38.514Z,85.33
2023-01-03T04:49:08.565Z,85.73
2023-01-03T04:51:36.825Z,84.79
2023-01-03T04:54:06.072Z,84.93
2023-01-03T04:56:37.933Z,85.06
2023-01-03T04:59:06.404Z,84.85
2023-01-03T05:01:34.353Z,85.23
2023-01-03T05:04:04.983Z,84.72
2023-01-03T05:06:32.904Z,84.93
2023-01-03T05:09:00.724Z,85.16
2023-01-03T05:11:28.667Z,84.60
2023-01-03T05:13:58.000Z,84.88
2023-01-03T05:16:25.893Z,85.02
2023-01-03T05:18:54.370Z,84.49
2023-01-03T05:21:41.178Z,85.04
2023-01-03T05:24:29.027Z,84.28
2023-01-03T05:26:57.691Z,84.62
2023-01-03T05:29:28.741Z,84.15
2023-01-03T05:31:57.283Z,83.66
2023-01-03T05:34:25.152Z,84.09
2023-01-03T05:36:53.312Z,84.24
2023-01-03T05:39:21.144Z,83.29
2023-01-03T05:42:01.496Z,83.71
2023-01-03T05:44:32.184Z,82.91
2023-01-03T05:47:00.687Z,83.38
2023-01-03T05:49:28.861Z,82.98
2023-01-03T05:51:56.844Z,82.87
2023-01-03T05:54:24.853Z,82.86
2023-01-03T05:56:52.795Z,83.71
2023-01-03T05:59:21.201Z,83.14
2023-01-03T06:01:50.775Z,83.98
2023-01-03T06:04:18.857Z,83.71
2023-01-03T06:06:46.796Z,84.44
2023-01-03T06:09:14.875Z,84.31
2023-01-03T06:11:42.783Z,83.72
2023-01-03T06:14:10.679Z,84.16
2023-01-03T06:16:56.085Z,84.61
2023-01-03T06:19:25.381Z,84.70
2023-01-03T06:21:53.207Z,85.13
2023-01-03T06:24:21.125Z,84.90
2023-01-03T06:26:49.057Z,84.48
2023-01-03T06:29:17.234Z,84.67
2023-01-03T06:31:45.605Z,84.82
2023-01-03T06:34:13.499Z,85.05
2023-01-03T06:36:43.003Z,85.16
2023-01-03T06:39:11.400Z,84.72
2023-01-03T06:41:39.365Z,85.32
2023-01-03T06:44:07.241Z,85.38
2023-01-03T06:46:52.363Z,84.60
2023-01-03T06:49:37.905Z,83.77
2023-01-03T06:52:31.188Z,83.11
2023-01-03T06:54:59.335Z,83.37
2023-01-03T06:57:27.652Z,82.52
2023-01-03T06:59:56.382Z,81.79
2023-01-03T07:02:24.826Z,81.34
2023-01-03T07:04:53.032Z,80.83
2023-01-03T07:07:22.652Z,79.83
2023-01-03T07:09:50.641Z,79.41
2023-01-03T07:12:37.696Z,78.86
2023-01-03T07:15:06.766Z,79.51
2023-01-03T07:17:34.729Z,78.13
2023-01-03T07:20:03.182Z,78.31
2023-01-03T07:22:32.812Z,77.83
2023-01-03T07:25:00.918Z,76.96
2023-01-03T07:27:29.005Z,76.57
2023-01-03T07:29:56.913Z,76.64
2023-01-03T07:32:24.858Z,76.53
2023-01-03T07:34:52.867Z,76.02
2023-01-03T07:37:20.822Z,75.34
2023-01-03T07:39:50.218Z,75.19
2023-01-03T07:42:35.693Z,75.19
2023-01-03T07:45:03.748Z,74.09
2023-01-03T07:47:31.559Z,74.71
2023-01-03T07:49:59.506Z,74.05
2023-01-03T07:52:28.811Z,75.01
2023-01-03T07:54:58.004Z,74.46
2023-01-03T07:57:25.969Z,74.36
2023-01-03T07:59:53.789Z,74.04
2023-01-03T08:02:21.719Z,73.42
2023-01-03T08:04:49.632Z,73.10
2023-01-03T08:07:17.530Z,72.67
2023-01-03T08:10:03.098Z,72.43
2023-01-03T08:12:49.599Z,73.59
2023-01-03T08:15:17.661Z,73.63
2023-01-03T08:17:45.441Z,74.37
2023-01-03T08:20:13.321Z,74.79
2023-01-03T08:22:41.146Z,74.94
2023-01-03T08:25:09.850Z,75.25
2023-01-03T08:27:41.803Z,75.74
2023-01-03T08:30:13.347Z,75.99
2023-01-03T08:32:41.196Z,76.21
2023-01-03T08:35:11.261Z,77.40
2023-01-03T08:37:39.317Z,77.98
2023-01-03T08:40:08.658Z,78.74
2023-01-03T08:42:38.418Z,77.26
2023-01-03T08:45:10.762Z,77.53
2023-01-03T08:47:38.976Z,77.44
2023-01-03T08:50:08.020Z,77.05
2023-01-03T08:52:36.107Z,78.42
2023-01-03T08:55:04.307Z,77.29
2023-01-03T08:57:32.413Z,78.91
2023-01-03T09:00:01.865Z,78.14
2023-01-03T09:02:29.897Z,78.15
2023-01-03T09:04:59.351Z,78.04
2023-01-03T09:07:27.444Z,76.76
2023-01-03T09:09:55.310Z,75.96
2023-01-03T09:12:23.286Z,75.73
2023-01-03T09:14:51.127Z,76.11
2023-01-03T09:17:21.482Z,76.56
2023-01-03T09:19:49.467Z,76.23
2023-01-03T09:22:17.334Z,76.64
2023-01-03T09:24:45.191Z,77.22
2023-01-03T09:27:13.485Z,76.75
2023-01-03T09:29:41.404Z,76.55
2023-01-03T09:32:09.373Z,76.66
2023-01-03T09:34:38.784Z,78.06
2023-01-03T09:37:06.673Z,77.25
2023-01-03T09:39:35.089Z,77.73
2023-01-03T09:42:20.388Z,76.84
2023-01-03T09:44:48.717Z,77.56
2023-01-03T09:47:21.421Z,77.11
2023-01-03T09:50:26.755Z,77.23
2023-01-03T09:53:03.274Z,77.32
2023-01-03T09:55:55.240Z,77.20
2023-01-03T09:58:40.586Z,76.47
2023-01-03T10:01:42.377Z,77.27
2023-01-03T10:04:37.859Z,77.07
2023-01-03T10:07:16.243Z,79.67
2023-01-03T10:09:54.408Z,78.50
2023-01-03T10:12:30.232Z,77.66
2023-01-03T10:15:13.161Z,77.96
2023-01-03T10:17:53.735Z,79.34
2023-01-03T10:20:34.751Z,76.95
2023-01-03T10:23:07.875Z,75.09
2023-01-03T10:25:40.071Z,74.07
2023-01-03T10:28:17.232Z,74.29
2023-01-03T10:31:19.896Z,73.35
2023-01-03T10:33:49.868Z,73.46
2023-01-03T10:36:20.629Z,72.99
2023-01-03T10:38:53.337Z,72.80
2023-01-03T10:41:24.736Z,71.54
2023-01-03T10:44:01.541Z,70.62
2023-01-03T10:46:31.086Z,71.52
2023-01-03T10:49:31.459Z,70.74
2023-01-03T10:52:03.954Z,70.38
2023-01-03T10:54:50.376Z,70.37
2023-01-03T10:57:46.132Z,70.35
2023-01-03T11:00:26.588Z,69.68
2023-01-03T11:02:56.583Z,69.24
2023-01-03T11:05:26.711Z,69.50
2023-01-03T11:07:57.012Z,69.42
2023-01-03T11:10:35.038Z,67.71
2023-01-03T11:13:03.156Z,66.70
2023-01-03T11:15:39.298Z,67.13
2023-01-03T11:18:17.421Z,67.17
2023-01-03T11:20:50.791Z,67.00
2023-01-03T11:23:26.195Z,68.29
2023-01-03T11:26:04.064Z,65.81
2023-01-03T11:29:05.567Z,65.95
2023-01-03T11:31:43.111Z,65.57
2023-01-03T11:34:37.795Z,66.29
2023-01-03T11:37:25.802Z,65.65
2023-01-03T11:40:08.700Z,65.11
2023-01-03T11:42:51.526Z,63.68
2023-01-03T11:45:44.784Z,63.87
2023-01-03T11:48:54.090Z,63.50
2023-01-03T11:51:31.136Z,63.93
2023-01-03T11:54:05.422Z,62.40
2023-01-03T11:56:37.411Z,62.53
2023-01-03T11:59:20.387Z,62.30
2023-01-03T12:02:32.912Z,61.15
2023-01-03T12:05:15.012Z,61.78
2023-01-03T12:07:56.343Z,61.35
2023-01-03T12:10:31.731Z,61.32
2023-01-03T12:13:09.924Z,61.67
2023-01-03T12:15:45.826Z,61.26
2023-01-03T12:18:22.192Z,60.71
2023-01-03T12:20:56.160Z,61.29
2023-01-03T12:23:34.637Z,61.65
2023-01-03T12:26:06.533Z,62.22
2023-01-03T12:28:39.987Z,61.55
2023-01-03T12:31:22.340Z,62.08
2023-01-03T12:34:04.022Z,61.65
2023-01-03T12:36:43.248Z,61.14
2023-01-03T12:39:33.583Z,61.27
2023-01-03T12:42:07.884Z,61.87
2023-01-03T12:44:40.128Z,61.54
2023-01-03T12:47:21.555Z,61.39
2023-01-03T12:49:55.155Z,60.56
2023-01-03T12:52:25.576Z,60.93
2023-01-03T12:54:57.665Z,61.42
2023-01-03T12:57:57.073Z,61.17
2023-01-03T13:00:42.992Z,60.59
2023-01-03T13:03:21.408Z,60.81
2023-01-03T13:05:53.349Z,61.26
2023-01-03T13:08:32.976Z,61.03
2023-01-03T13:11:05.765Z,60.67
2023-01-03T13:13:35.878Z,61.11
2023-01-03T13:16:43.172Z,61.21
2023-01-03T13:19:55.830Z,60.61
2023-01-03T13:22:47.585Z,60.68
2023-01-03T13:25:41.546Z,61.77
2023-01-03T13:28:31.297Z,60.64
2023-01-03T13:31:48.230Z,60.95
2023-01-03T13:34:33.148Z,60.83
2023-01-03T13:37:17.823Z,61.02
2023-01-03T13:40:21.735Z,60.86
2023-01-03T13:43:01.362Z,61.83
2023-01-03T13:45:55.191Z,61.58
2023-01-03T13:48:41.216Z,61.08
2023-01-03T13:51:50.671Z,61.01
2023-01-03T13:54:50.421Z,61.41
2023-01-03T13:57:36.398Z,62.26
2023-01-03T14:00:11.183Z,62.43
2023-01-03T14:03:15.520Z,62.23
2023-01-03T14:06:06.716Z,63.67
2023-01-03T14:08:54.743Z,63.33
2023-01-03T14:11:36.179Z,63.47
2023-01-03T14:14:10.689Z,63.36
2023-01-03T14:16:46.744Z,63.21
2023-01-03T14:19:22.312Z,63.65
2023-01-03T14:21:54.675Z,63.78
2023-01-03T14:24:27.517Z,63.32
2023-01-03T14:27:04.171Z,63.38
2023-01-03T14:29:32.495Z,63.45
2023-01-03T14:32:00.656Z,63.64
2023-01-03T14:34:36.817Z,63.60
2023-01-03T14:37:07.626Z,63.70
2023-01-03T14:42:08.902Z,63.61
2023-01-03T14:44:36.900Z,64.05
2023-01-03T14:47:08.590Z,64.33
2023-01-03T14:49:43.969Z,63.86
2023-01-03T14:52:19.553Z,64.27
2023-01-03T14:54:51.908Z,64.35
2023-01-03T14:57:25.221Z,63.78
2023-01-03T14:59:54.574Z,63.89
2023-01-03T15:02:23.045Z,63.84
2023-01-03T15:04:53.696Z,63.69
2023-01-03T15:07:31.969Z,62.40
2023-01-03T15:10:08.337Z,63.13
2023-01-03T15:12:41.992Z,63.76
2023-01-03T15:15:20.859Z,63.80
2023-01-03T15:17:50.756Z,64.28
2023-01-03T15:20:20.810Z,65.12
2023-01-03T15:22:48.856Z,64.75
2023-01-03T15:25:20.738Z,64.69
2023-01-03T15:27:51.379Z,64.27
2023-01-03T15:30:23.663Z,64.82
2023-01-03T15:32:55.734Z,65.96
2023-01-03T15:35:30.591Z,64.83
2023-01-03T15:38:00.315Z,65.58
2023-01-03T15:40:30.856Z,65.17
2023-01-03T15:43:22.118Z,65.74
2023-01-03T15:45:58.538Z,66.75
2023-01-03T15:48:27.326Z,67.24
2023-01-03T15:50:57.201Z,67.50
2023-01-03T15:53:27.798Z,67.69
2023-01-03T15:56:00.441Z,68.14
2023-01-03T15:58:31.119Z,69.25
2023-01-03T16:01:00.818Z,69.99
2023-01-03T16:03:33.870Z,70.51
2023-01-03T16:06:03.179Z,71.51
2023-01-03T16:08:33.398Z,72.31
2023-01-03T16:11:04.334Z,72.40
2023-01-03T16:13:38.855Z,72.81
2023-01-03T16:16:08.861Z,73.18
2023-01-03T16:18:39.331Z,72.92
2023-01-03T16:21:07.995Z,73.17
2023-01-03T16:23:36.352Z,74.32
2023-01-03T16:26:04.461Z,74.00
2023-01-03T16:28:33.777Z,73.96
2023-01-03T16:31:04.943Z,74.85
2023-01-03T16:33:35.888Z,73.93
2023-01-03T16:36:04.083Z,74.27
2023-01-03T16:38:33.973Z,74.55
2023-01-03T16:41:02.273Z,75.16
2023-01-03T16:43:30.597Z,74.83
2023-01-03T16:46:00.744Z,74.98
2023-01-03T16:48:37.948Z,75.49
2023-01-03T16:51:06.691Z,74.68
2023-01-03T16:53:38.600Z,75.45
2023-01-03T16:56:08.427Z,75.98
2023-01-03T16:58:36.246Z,76.47
2023-01-03T17:01:06.312Z,75.57
2023-01-03T17:03:41.321Z,76.46
2023-01-03T17:06:25.457Z,75.45
2023-01-03T17:08:53.466Z,75.83
2023-01-03T17:11:21.450Z,75.62
2023-01-03T17:13:49.525Z,75.48
2023-01-03T17:16:20.641Z,75.63
2023-01-03T17:18:49.512Z,76.01
2023-01-03T17:21:23.682Z,75.61
2023-01-03T17:23:53.282Z,76.49
2023-01-03T17:26:23.061Z,76.63
2023-01-03T17:28:52.272Z,76.59
2023-01-03T17:31:25.139Z,77.25
2023-01-03T17:33:54.359Z,76.97
2023-01-03T17:36:25.892Z,76.49
2023-01-03T17:38:55.108Z,77.13
2023-01-03T17:41:25.163Z,77.79
2023-01-03T17:43:53.393Z,78.24
2023-01-03T17:46:42.173Z,77.94
2023-01-03T17:49:26.315Z,78.66
2023-01-03T17:51:57.218Z,78.82
2023-01-03T17:54:26.991Z,79.09
2023-01-03T17:56:55.826Z,79.56
2023-01-03T17:59:23.810Z,79.39
2023-01-03T18:01:54.716Z,79.48
2023-01-03T18:04:23.205Z,79.37
2023-01-03T18:06:57.250Z,80.11
2023-01-03T18:09:27.022Z,79.47
2023-01-03T18:11:55.360Z,80.27
2023-01-03T18:14:25.862Z,80.43
2023-01-03T18:16:55.505Z,79.88
2023-01-03T18:19:23.608Z,80.69
2023-01-03T18:21:52.066Z,80.17
2023-01-03T18:24:23.137Z,80.42
2023-01-03T18:26:55.777Z,80.50
2023-01-03T18:29:23.711Z,80.35
2023-01-03T18:31:51.914Z,80.77
2023-01-03T18:34:21.530Z,80.56
2023-01-03T18:36:52.437Z,81.52
2023-01-03T18:39:27.644Z,81.26
2023-01-03T18:42:17.149Z,81.33
2023-01-03T18:44:45.384Z,82.46
2023-01-03T18:47:14.468Z,83.02
2023-01-03T18:49:43.787Z,82.17
2023-01-03T18:52:23.441Z,82.96
2023-01-03T18:54:52.458Z,83.38
2023-01-03T18:57:20.652Z,83.92
2023-01-03T18:59:49.502Z,83.76
2023-01-03T19:02:18.913Z,84.71
2023-01-03T19:04:51.615Z,84.94
2023-01-03T19:07:26.084Z,85.46
2023-01-03T19:09:54.350Z,85.27
2023-01-03T19:12:22.262Z,85.39
2023-01-03T19:14:52.918Z,85.04
2023-01-03T19:17:21.231Z,85.54
2023-01-03T19:19:50.406Z,86.17
2023-01-03T19:22:25.624Z,85.47
2023-01-03T19:24:54.707Z,86.06
2023-01-03T19:27:24.839Z,85.94
2023-01-03T19:29:53.372Z,86.32
2023-01-03T19:32:23.906Z,86.53
2023-01-03T19:34:53.242Z,85.91
2023-01-03T19:37:22.496Z,87.02
2023-01-03T19:39:50.518Z,86.73
2023-01-03T19:42:38.341Z,87.19
2023-01-03T19:45:17.023Z,87.99
2023-01-03T19:47:46.775Z,87.12
2023-01-03T19:50:22.657Z,86.54
2023-01-03T19:52:50.841Z,87.44
2023-01-03T19:55:19.443Z,87.06
2023-01-03T19:57:49.918Z,86.36
2023-01-03T20:00:22.633Z,86.96
2023-01-03T20:02:54.485Z,86.98
2023-01-03T20:05:26.589Z,86.60
2023-01-03T20:07:55.081Z,86.77
2023-01-03T20:10:24.248Z,86.81
2023-01-03T20:12:55.012Z,86.66
2023-01-03T20:15:25.870Z,86.94
2023-01-03T20:17:54.208Z,86.17
2023-01-03T20:20:25.610Z,86.52
2023-01-03T20:23:05.717Z,87.18
2023-01-03T20:25:37.554Z,86.22
2023-01-03T20:28:06.609Z,86.58
2023-01-03T20:30:35.614Z,86.09
2023-01-03T20:33:03.487Z,85.83
2023-01-03T20:38:25.254Z,86.57
2023-01-03T20:40:53.649Z,86.70
2023-01-03T20:43:22.137Z,86.85
2023-01-03T20:45:53.344Z,86.84
2023-01-03T20:48:25.920Z,86.31
2023-01-03T20:50:56.488Z,86.71
2023-01-03T20:53:26.970Z,86.35
2023-01-03T20:55:55.379Z,86.87
2023-01-03T20:58:26.226Z,86.95
2023-01-03T21:01:02.035Z,87.38
2023-01-03T21:03:32.826Z,87.54
2023-01-03T21:06:02.267Z,87.57
2023-01-03T21:08:48.096Z,87.92
2023-01-03T21:11:16.507Z,88.15
2023-01-03T21:13:44.319Z,88.50
2023-01-03T21:16:21.189Z,88.72
2023-01-03T21:18:49.305Z,88.70
2023-01-03T21:21:21.380Z,88.75
2023-01-03T21:23:49.376Z,89.50
2023-01-03T21:26:17.341Z,89.49
2023-01-03T21:28:45.253Z,89.24
2023-01-03T21:31:18.923Z,89.38
2023-01-03T21:33:46.947Z,89.49
2023-01-03T21:36:23.290Z,89.31
2023-01-03T21:38:53.197Z,89.63
2023-01-03T21:41:23.171Z,88.71
2023-01-03T21:43:51.265Z,90.13
2023-01-03T21:46:21.079Z,89.17
2023-01-03T21:48:49.116Z,88.88
2023-01-03T21:51:24.732Z,88.45
2023-01-03T21:54:02.655Z,88.52
2023-01-03T21:56:30.528Z,88.08
2023-01-03T21:58:58.547Z,88.16
2023-01-03T22:01:27.020Z,88.50
2023-01-03T22:04:12.720Z,88.17
2023-01-03T22:06:40.589Z,87.63
2023-01-03T22:09:29.928Z,86.64
2023-01-03T22:11:57.949Z,87.51
2023-01-03T22:14:25.943Z,87.37
2023-01-03T22:16:53.874Z,87.18
2023-01-03T22:19:21.806Z,87.64
2023-01-03T22:21:49.706Z,87.88
2023-01-03T22:24:19.019Z,86.59
2023-01-03T22:26:47.038Z,86.61
2023-01-03T22:29:14.866Z,86.33
2023-01-03T22:31:43.086Z,86.36
2023-01-03T22:34:11.088Z,86.62
2023-01-03T22:36:39.017Z,87.00
2023-01-03T22:39:06.964Z,86.28
2023-01-03T22:41:36.540Z,86.65
2023-01-03T22:44:04.484Z,86.27
2023-01-03T22:46:33.116Z,86.07
2023-01-03T22:49:01.177Z,85.78
2023-01-03T22:51:29.329Z,86.43
2023-01-03T22:53:58.418Z,86.27
2023-01-03T22:56:26.285Z,86.17
2023-01-03T22:58:55.763Z,86.84
2023-01-03T23:01:28.049Z,86.41
2023-01-03T23:04:00.097Z,86.67
2023-01-03T23:06:30.262Z,87.12
2023-01-03T23:08:58.640Z,87.31
2023-01-03T23:11:54.822Z,86.50
2023-01-03T23:14:25.862Z,86.32
2023-01-03T23:16:56.099Z,86.64
2023-01-03T23:19:25.878Z,85.80
2023-01-03T23:21:56.417Z,86.23
2023-01-03T23:24:25.262Z,85.87
2023-01-03T23:26:53.971Z,85.17
2023-01-03T23:29:23.651Z,85.21
2023-01-03T23:31:52.667Z,85.13
2023-01-03T23:34:20.683Z,84.86
2023-01-03T23:36:48.912Z,85.85
2023-01-03T23:39:18.533Z,85.27
2023-01-03T23:41:46.985Z,85.39
2023-01-03T23:44:15.047Z,85.65
2023-01-03T23:46:44.406Z,84.96
2023-01-03T23:49:13.465Z,84.49
2023-01-03T23:51:41.604Z,84.07
2023-01-03T23:54:10.050Z,84.39
2023-01-03T23:56:38.493Z,84.56
2023-01-03T23:59:06.987Z,83.75
